createdAt,value
2016-12-16T04:00:39.394Z,20.53
2016-12-16T04:01:04.973Z,20.62
2016-12-16T04:01:30.573Z,20.56
2016-12-16T04:01:56.130Z,20.56
2016-12-16T04:02:21.803Z,20.54
2016-12-16T04:02:47.344Z,20.47
2016-12-16T04:03:12.940Z,20.49
2016-12-16T04:03:38.499Z,20.54
2016-12-16T04:04:04.028Z,20.49
2016-12-16T04:04:29.622Z,20.59
2016-12-16T04:04:55.223Z,20.5
2016-12-16T04:05:20.764Z,20.53
2016-12-16T04:05:46.366Z,20.47
2016-12-16T04:06:12.062Z,20.58
2016-12-16T04:06:37.628Z,20.53
2016-12-16T04:07:03.229Z,20.56
2016-12-16T04:07:28.980Z,20.42
2016-12-16T04:07:54.675Z,20.58
2016-12-16T04:08:20.250Z,20.59
2016-12-16T04:08:45.806Z,20.54
2016-12-16T04:09:11.359Z,20.53
2016-12-16T04:09:37.066Z,20.53
2016-12-16T04:10:02.609Z,20.53
2016-12-16T04:10:28.166Z,20.5
2016-12-16T04:10:53.886Z,20.54
2016-12-16T04:11:19.432Z,20.56
2016-12-16T04:11:45.011Z,20.53
2016-12-16T04:12:10.564Z,20.53
2016-12-16T04:12:36.140Z,20.56
2016-12-16T04:13:01.703Z,20.49
2016-12-16T04:13:27.268Z,20.47
2016-12-16T04:13:52.793Z,20.47
2016-12-16T04:14:18.334Z,20.54
2016-12-16T04:14:43.874Z,20.59
2016-12-16T04:15:09.461Z,20.51
2016-12-16T04:15:35.049Z,20.58
2016-12-16T04:16:00.588Z,20.51
2016-12-16T04:16:26.218Z,20.61
2016-12-16T04:16:51.840Z,20.58
2016-12-16T04:17:17.385Z,20.56
2016-12-16T04:17:43.033Z,20.58
2016-12-16T04:18:08.666Z,20.53
2016-12-16T04:18:34.224Z,20.54
2016-12-16T04:18:59.783Z,20.53
2016-12-16T04:19:25.336Z,20.56
2016-12-16T04:19:51.963Z,20.54
2016-12-16T04:20:16.605Z,20.54
2016-12-16T04:20:42.165Z,20.54
2016-12-16T04:21:07.817Z,20.54
2016-12-16T04:21:33.445Z,20.53
2016-12-16T04:21:58.993Z,20.56
2016-12-16T04:22:24.625Z,20.56
2016-12-16T04:22:50.296Z,20.51
2016-12-16T04:23:15.868Z,20.5
2016-12-16T04:23:41.489Z,20.59
2016-12-16T04:24:07.244Z,20.54
2016-12-16T04:24:32.940Z,20.56
2016-12-16T04:24:58.489Z,20.58
2016-12-16T04:25:24.046Z,20.58
2016-12-16T04:25:49.655Z,20.56
2016-12-16T04:26:15.284Z,20.49
2016-12-16T04:26:40.811Z,20.43
2016-12-16T04:27:06.353Z,20.58
2016-12-16T04:27:31.899Z,20.54
2016-12-16T04:27:57.500Z,20.61
2016-12-16T04:28:23.073Z,20.46
2016-12-16T04:28:48.627Z,20.54
2016-12-16T04:29:14.162Z,20.5
2016-12-16T04:29:39.713Z,20.5
2016-12-16T04:30:05.244Z,20.54
2016-12-16T04:30:30.801Z,20.54
2016-12-16T04:30:56.362Z,20.53
2016-12-16T04:31:21.908Z,20.54
2016-12-16T04:31:47.433Z,20.46
2016-12-16T04:32:12.995Z,20.5
2016-12-16T04:32:38.537Z,20.56
2016-12-16T04:33:04.220Z,20.58
2016-12-16T04:33:29.770Z,20.56
2016-12-16T04:33:55.360Z,20.47
2016-12-16T04:34:20.907Z,20.56
2016-12-16T04:34:46.455Z,20.54
2016-12-16T04:35:12.000Z,20.49
2016-12-16T04:35:37.543Z,20.56
2016-12-16T04:36:03.090Z,20.51
2016-12-16T04:36:28.650Z,20.54
2016-12-16T04:36:54.190Z,20.49
2016-12-16T04:37:19.744Z,20.53
2016-12-16T04:37:45.280Z,20.59
2016-12-16T04:38:10.816Z,20.51
2016-12-16T04:38:36.370Z,20.49
2016-12-16T04:39:01.936Z,20.46
2016-12-16T04:39:27.528Z,20.53
2016-12-16T04:39:53.100Z,20.53
2016-12-16T04:40:18.741Z,20.49
2016-12-16T04:40:44.280Z,20.53
2016-12-16T04:41:09.836Z,20.54
2016-12-16T04:41:35.393Z,20.5
2016-12-16T04:42:00.943Z,20.54
2016-12-16T04:42:26.577Z,20.54
2016-12-16T04:42:52.132Z,20.53
2016-12-16T04:43:17.704Z,20.58
2016-12-16T04:43:43.291Z,20.54
2016-12-16T04:44:08.848Z,20.59
2016-12-16T04:44:34.475Z,20.62
2016-12-16T04:45:00.034Z,20.54
2016-12-16T04:45:25.572Z,20.59
2016-12-16T04:45:51.169Z,20.64
2016-12-16T04:46:16.767Z,20.59
2016-12-16T04:46:42.433Z,20.59
2016-12-16T04:47:50.760Z,20.68
2016-12-16T04:48:43.734Z,20.69
2016-12-16T04:49:09.284Z,20.59
2016-12-16T04:49:34.915Z,20.61
2016-12-16T04:50:00.484Z,20.61
2016-12-16T04:50:26.049Z,20.58
2016-12-16T04:50:51.607Z,20.56
2016-12-16T04:51:17.158Z,20.65
2016-12-16T04:51:42.710Z,20.56
2016-12-16T04:52:08.265Z,20.54
2016-12-16T04:52:33.830Z,20.51
2016-12-16T04:52:59.409Z,20.62
2016-12-16T04:53:25.109Z,20.54
2016-12-16T04:53:50.699Z,20.49
2016-12-16T04:54:16.247Z,20.53
2016-12-16T04:54:41.808Z,20.5
2016-12-16T04:55:07.406Z,20.5
2016-12-16T04:55:32.948Z,20.54
2016-12-16T04:55:58.598Z,20.5
2016-12-16T04:56:24.193Z,20.54
2016-12-16T04:56:49.834Z,20.42
2016-12-16T04:57:15.389Z,20.56
2016-12-16T04:57:41.069Z,20.49
2016-12-16T04:58:06.630Z,20.47
2016-12-16T04:58:32.256Z,20.58
2016-12-16T04:58:57.849Z,20.56
2016-12-16T04:59:23.397Z,20.59
2016-12-16T04:59:48.964Z,20.53
2016-12-16T05:00:14.588Z,20.49
2016-12-16T05:00:40.152Z,20.54
2016-12-16T05:01:05.715Z,20.41
2016-12-16T05:01:31.294Z,20.5
2016-12-16T05:01:56.873Z,20.54
2016-12-16T05:02:22.422Z,20.42
2016-12-16T05:02:48.024Z,20.5
2016-12-16T05:03:13.596Z,20.39
2016-12-16T05:03:39.169Z,20.39
2016-12-16T05:04:04.776Z,20.38
2016-12-16T05:04:30.417Z,20.39
2016-12-16T05:04:55.970Z,20.35
2016-12-16T05:05:21.607Z,20.38
2016-12-16T05:05:47.259Z,20.39
2016-12-16T05:06:12.806Z,20.46
2016-12-16T05:06:38.379Z,20.41
2016-12-16T05:07:03.989Z,20.39
2016-12-16T05:07:29.554Z,20.38
2016-12-16T05:07:55.119Z,20.43
2016-12-16T05:08:20.844Z,20.41
2016-12-16T05:08:46.408Z,20.39
2016-12-16T05:09:12.039Z,20.41
2016-12-16T05:09:37.612Z,20.46
2016-12-16T05:10:03.170Z,20.58
2016-12-16T05:10:28.773Z,20.53
2016-12-16T05:10:54.339Z,20.56
2016-12-16T05:11:19.899Z,20.51
2016-12-16T05:11:45.492Z,20.58
2016-12-16T05:12:11.059Z,20.56
2016-12-16T05:12:36.629Z,20.49
2016-12-16T05:13:02.175Z,20.56
2016-12-16T05:13:27.729Z,20.59
2016-12-16T05:13:53.299Z,20.51
2016-12-16T05:14:18.857Z,20.51
2016-12-16T05:14:44.418Z,20.53
2016-12-16T05:15:10.006Z,20.53
2016-12-16T05:15:35.583Z,20.47
2016-12-16T05:16:01.189Z,20.49
2016-12-16T05:16:26.747Z,20.54
2016-12-16T05:16:52.311Z,20.47
2016-12-16T05:17:17.881Z,20.49
2016-12-16T05:17:43.436Z,20.51
2016-12-16T05:18:09.067Z,20.54
2016-12-16T05:18:34.631Z,20.58
2016-12-16T05:19:00.175Z,20.49
2016-12-16T05:19:25.737Z,20.47
2016-12-16T05:19:51.329Z,20.54
2016-12-16T05:20:16.889Z,20.51
2016-12-16T05:20:42.602Z,20.43
2016-12-16T05:21:08.177Z,20.58
2016-12-16T05:21:33.751Z,20.42
2016-12-16T05:21:59.324Z,20.47
2016-12-16T05:22:24.975Z,20.39
2016-12-16T05:22:50.545Z,20.34
2016-12-16T05:23:16.137Z,20.38
2016-12-16T05:23:41.762Z,20.42
2016-12-16T05:24:07.330Z,20.41
2016-12-16T05:24:32.879Z,20.38
2016-12-16T05:24:58.444Z,20.38
2016-12-16T05:25:23.994Z,20.41
2016-12-16T05:25:49.556Z,20.38
2016-12-16T05:26:15.178Z,20.41
2016-12-16T05:26:40.716Z,20.41
2016-12-16T05:27:06.282Z,20.42
2016-12-16T05:27:31.922Z,20.42
2016-12-16T05:27:57.556Z,20.43
2016-12-16T05:28:23.123Z,20.43
2016-12-16T05:28:48.754Z,20.41
2016-12-16T05:29:14.392Z,20.38
2016-12-16T05:29:39.953Z,20.42
2016-12-16T05:30:05.572Z,20.34
2016-12-16T05:30:31.129Z,20.38
2016-12-16T05:30:56.688Z,20.39
2016-12-16T05:31:22.244Z,20.39
2016-12-16T05:31:47.827Z,20.42
2016-12-16T05:32:13.387Z,20.35
2016-12-16T05:32:38.939Z,20.33
2016-12-16T05:33:04.498Z,20.34
2016-12-16T05:33:30.071Z,20.34
2016-12-16T05:33:55.616Z,20.42
2016-12-16T05:34:21.325Z,20.35
2016-12-16T05:34:46.886Z,20.33
2016-12-16T05:35:12.442Z,20.39
2016-12-16T05:35:38.016Z,20.31
2016-12-16T05:36:03.650Z,20.35
2016-12-16T05:36:29.216Z,20.31
2016-12-16T05:36:54.823Z,20.39
2016-12-16T05:37:20.403Z,20.41
2016-12-16T05:37:45.940Z,20.38
2016-12-16T05:38:11.552Z,20.42
2016-12-16T05:38:37.149Z,20.42
2016-12-16T05:39:02.746Z,20.31
2016-12-16T05:39:28.307Z,20.35
2016-12-16T05:39:53.869Z,20.42
2016-12-16T05:40:19.458Z,20.35
2016-12-16T05:40:45.110Z,20.42
2016-12-16T05:41:10.665Z,20.3
2016-12-16T05:41:36.250Z,20.31
2016-12-16T05:42:01.866Z,20.34
2016-12-16T05:42:27.476Z,20.41
2016-12-16T05:42:53.052Z,20.41
2016-12-16T05:43:18.619Z,20.42
2016-12-16T05:43:44.183Z,20.39
2016-12-16T05:44:09.758Z,20.35
2016-12-16T05:44:35.332Z,20.41
2016-12-16T05:45:00.891Z,20.42
2016-12-16T05:46:00.093Z,20.41
2016-12-16T05:46:25.799Z,20.38
2016-12-16T05:46:51.387Z,20.42
2016-12-16T05:47:16.957Z,20.41
2016-12-16T05:47:42.497Z,20.42
2016-12-16T05:48:08.107Z,20.51
2016-12-16T05:48:33.671Z,20.53
2016-12-16T05:48:59.248Z,20.51
2016-12-16T05:49:24.924Z,20.53
2016-12-16T05:49:50.509Z,20.54
2016-12-16T05:50:16.063Z,20.56
2016-12-16T05:50:41.742Z,20.61
2016-12-16T05:51:07.317Z,20.53
2016-12-16T05:51:32.887Z,20.54
2016-12-16T05:51:58.445Z,20.51
2016-12-16T05:52:24.115Z,20.61
2016-12-16T05:52:49.701Z,20.54
2016-12-16T05:53:15.309Z,20.59
2016-12-16T05:53:40.960Z,20.62
2016-12-16T05:54:06.579Z,20.59
2016-12-16T05:54:32.138Z,20.61
2016-12-16T05:54:57.685Z,20.62
2016-12-16T05:55:23.245Z,20.66
2016-12-16T05:55:48.800Z,20.66
2016-12-16T05:56:14.363Z,20.69
2016-12-16T05:56:39.926Z,20.68
2016-12-16T05:57:05.489Z,20.69
2016-12-16T05:57:32.809Z,20.68
2016-12-16T05:57:58.373Z,20.71
2016-12-16T05:59:08.595Z,20.66
2016-12-16T05:59:34.190Z,20.72
2016-12-16T05:59:59.753Z,20.68
2016-12-16T06:00:25.261Z,20.71
2016-12-16T06:00:50.810Z,20.72
2016-12-16T06:01:16.390Z,20.72
2016-12-16T06:01:41.954Z,20.77
2016-12-16T06:02:07.567Z,20.77
2016-12-16T06:02:33.134Z,20.8
2016-12-16T06:02:58.788Z,20.76
2016-12-16T06:03:24.352Z,20.77
2016-12-16T06:03:49.916Z,20.87
2016-12-16T06:04:15.591Z,20.83
2016-12-16T06:04:41.127Z,20.81
2016-12-16T06:05:06.704Z,20.81
2016-12-16T06:05:32.259Z,20.81
2016-12-16T06:05:57.813Z,20.86
2016-12-16T06:06:23.414Z,20.86
2016-12-16T06:06:48.988Z,20.77
2016-12-16T06:07:14.562Z,20.79
2016-12-16T06:07:40.124Z,20.8
2016-12-16T06:08:05.797Z,20.81
2016-12-16T06:08:31.346Z,20.89
2016-12-16T06:08:56.957Z,20.84
2016-12-16T06:09:22.625Z,20.89
2016-12-16T06:09:48.222Z,20.87
2016-12-16T06:10:13.772Z,20.87
2016-12-16T06:10:39.356Z,20.9
2016-12-16T06:11:05.064Z,20.87
2016-12-16T06:11:30.615Z,20.89
2016-12-16T06:11:56.173Z,20.9
2016-12-16T06:12:21.798Z,20.9
2016-12-16T06:12:47.447Z,20.89
2016-12-16T06:13:13.008Z,20.89
2016-12-16T06:13:38.616Z,20.86
2016-12-16T06:14:46.949Z,20.89
2016-12-16T06:15:55.218Z,20.9
2016-12-16T06:16:20.772Z,20.83
2016-12-16T06:16:46.380Z,20.9
2016-12-16T06:17:11.959Z,20.87
2016-12-16T06:17:37.517Z,20.86
2016-12-16T06:18:03.093Z,20.86
2016-12-16T06:18:28.771Z,20.89
2016-12-16T06:18:54.356Z,20.87
2016-12-16T06:19:19.919Z,20.86
2016-12-16T06:19:45.483Z,20.87
2016-12-16T06:20:11.026Z,20.86
2016-12-16T06:20:36.607Z,20.89
2016-12-16T06:21:02.292Z,20.84
2016-12-16T06:21:27.898Z,20.87
2016-12-16T06:21:53.466Z,20.83
2016-12-16T06:22:19.035Z,20.93
2016-12-16T06:22:44.596Z,20.8
2016-12-16T06:23:10.175Z,20.69
2016-12-16T06:24:13.447Z,20.64
2016-12-16T06:25:01.275Z,20.54
2016-12-16T06:25:27.615Z,20.49
2016-12-16T06:27:34.090Z,20.49
2016-12-16T06:27:59.647Z,20.51
2016-12-16T06:28:25.246Z,20.56
2016-12-16T06:28:50.803Z,20.54
2016-12-16T06:29:16.355Z,20.62
2016-12-16T06:29:42.016Z,20.61
2016-12-16T06:30:07.605Z,20.59
2016-12-16T06:30:33.159Z,20.51
2016-12-16T06:30:58.769Z,20.59
2016-12-16T06:31:24.335Z,20.62
2016-12-16T06:31:49.884Z,20.62
2016-12-16T06:32:15.458Z,20.62
2016-12-16T06:32:41.189Z,20.61
2016-12-16T06:33:06.753Z,20.62
2016-12-16T06:33:32.334Z,20.64
2016-12-16T06:33:57.914Z,20.61
2016-12-16T06:34:23.455Z,20.71
2016-12-16T06:34:49.019Z,20.71
2016-12-16T06:35:14.578Z,20.69
2016-12-16T06:35:40.164Z,20.65
2016-12-16T06:36:05.738Z,20.71
2016-12-16T06:36:31.457Z,20.66
2016-12-16T06:36:57.025Z,20.71
2016-12-16T06:37:22.638Z,20.71
2016-12-16T06:37:48.186Z,20.68
2016-12-16T06:38:13.758Z,20.69
2016-12-16T06:38:39.418Z,20.68
2016-12-16T06:39:04.973Z,20.69
2016-12-16T06:39:30.532Z,20.68
2016-12-16T06:39:56.097Z,20.66
2016-12-16T06:40:21.666Z,20.68
2016-12-16T06:40:47.343Z,20.64
2016-12-16T06:41:12.916Z,20.68
2016-12-16T06:41:38.468Z,20.72
2016-12-16T06:42:04.075Z,20.69
2016-12-16T06:42:29.645Z,20.68
2016-12-16T06:42:55.217Z,20.65
2016-12-16T06:43:20.795Z,20.68
2016-12-16T06:43:46.352Z,20.71
2016-12-16T06:44:11.959Z,20.69
2016-12-16T06:44:37.714Z,20.69
2016-12-16T06:45:03.273Z,20.65
2016-12-16T06:45:28.847Z,20.71
2016-12-16T06:45:54.505Z,20.74
2016-12-16T06:46:20.071Z,20.66
2016-12-16T06:46:45.615Z,20.71
2016-12-16T06:47:11.203Z,20.66
2016-12-16T06:47:36.777Z,20.64
2016-12-16T06:48:02.351Z,20.64
2016-12-16T06:48:27.918Z,20.66
2016-12-16T06:48:53.473Z,20.66
2016-12-16T06:49:19.046Z,20.68
2016-12-16T06:49:44.759Z,20.71
2016-12-16T06:50:10.343Z,20.71
2016-12-16T06:50:35.902Z,20.66
2016-12-16T06:51:01.523Z,20.65
2016-12-16T06:51:27.087Z,20.68
2016-12-16T06:51:52.648Z,20.71
2016-12-16T06:52:18.220Z,20.71
2016-12-16T06:52:43.790Z,20.66
2016-12-16T06:53:09.347Z,20.66
2016-12-16T06:53:34.947Z,20.76
2016-12-16T06:54:00.521Z,20.66
2016-12-16T06:54:26.096Z,20.76
2016-12-16T06:54:51.649Z,20.71
2016-12-16T06:55:17.397Z,20.71
2016-12-16T06:55:42.907Z,20.65
2016-12-16T06:56:08.468Z,20.68
2016-12-16T06:56:34.035Z,20.69
2016-12-16T06:56:59.604Z,20.66
2016-12-16T06:57:25.157Z,20.68
2016-12-16T06:57:50.728Z,20.71
2016-12-16T06:58:16.335Z,20.74
2016-12-16T06:58:41.928Z,20.64
2016-12-16T06:59:07.486Z,20.76
2016-12-16T06:59:33.080Z,20.72
2016-12-16T06:59:58.752Z,20.64
2016-12-16T07:01:07.084Z,20.66
2016-12-16T07:01:32.808Z,20.69
2016-12-16T07:01:58.359Z,20.74
2016-12-16T07:02:23.891Z,20.69
2016-12-16T07:02:49.624Z,20.68
2016-12-16T07:03:15.235Z,20.71
2016-12-16T07:03:40.816Z,20.64
2016-12-16T07:04:06.456Z,20.71
2016-12-16T07:04:32.043Z,20.69
2016-12-16T07:04:57.629Z,20.71
2016-12-16T07:05:23.209Z,20.72
2016-12-16T07:05:48.884Z,20.76
2016-12-16T07:06:14.467Z,20.68
2016-12-16T07:06:40.035Z,20.66
2016-12-16T07:07:05.593Z,20.64
2016-12-16T07:07:31.232Z,20.66
2016-12-16T07:07:56.786Z,20.66
2016-12-16T07:08:22.350Z,20.66
2016-12-16T07:08:47.910Z,20.69
2016-12-16T07:09:13.502Z,20.69
2016-12-16T07:09:39.065Z,20.72
2016-12-16T07:10:04.636Z,20.72
2016-12-16T07:10:30.222Z,20.71
2016-12-16T07:10:55.799Z,20.66
2016-12-16T07:11:21.448Z,20.8
2016-12-16T07:11:47.031Z,20.81
2016-12-16T07:12:12.616Z,20.71
2016-12-16T07:12:38.169Z,20.66
2016-12-16T07:13:03.747Z,20.76
2016-12-16T07:13:29.315Z,20.68
2016-12-16T07:13:55.027Z,20.66
2016-12-16T07:14:20.587Z,20.68
2016-12-16T07:14:46.135Z,20.71
2016-12-16T07:15:11.723Z,20.64
2016-12-16T07:15:37.312Z,20.68
2016-12-16T07:16:02.873Z,20.64
2016-12-16T07:16:28.437Z,20.66
2016-12-16T07:16:54.006Z,20.72
2016-12-16T07:17:19.657Z,20.76
2016-12-16T07:17:45.223Z,20.72
2016-12-16T07:18:10.784Z,20.68
2016-12-16T07:18:36.359Z,20.72
2016-12-16T07:19:02.006Z,20.71
2016-12-16T07:19:27.551Z,20.69
2016-12-16T07:19:53.120Z,20.71
2016-12-16T07:20:18.775Z,20.69
2016-12-16T07:20:44.354Z,20.68
2016-12-16T07:21:09.908Z,20.68
2016-12-16T07:21:35.464Z,20.66
2016-12-16T07:22:01.016Z,20.68
2016-12-16T07:22:26.613Z,20.71
2016-12-16T07:22:52.186Z,20.71
2016-12-16T07:23:17.737Z,20.66
2016-12-16T07:23:43.317Z,20.65
2016-12-16T07:24:09.005Z,20.72
2016-12-16T07:24:34.561Z,20.68
2016-12-16T07:25:00.130Z,20.68
2016-12-16T07:25:25.723Z,20.68
2016-12-16T07:25:51.292Z,20.69
2016-12-16T07:26:16.862Z,20.65
2016-12-16T07:26:42.418Z,20.66
2016-12-16T07:27:08.010Z,20.66
2016-12-16T07:27:33.576Z,20.69
2016-12-16T07:27:59.180Z,20.71
2016-12-16T07:28:24.740Z,20.65
2016-12-16T07:28:50.298Z,20.68
2016-12-16T07:29:15.920Z,20.66
2016-12-16T07:29:41.498Z,20.66
2016-12-16T07:30:07.084Z,20.71
2016-12-16T07:30:32.747Z,20.66
2016-12-16T07:30:58.337Z,20.65
2016-12-16T07:31:23.915Z,20.69
2016-12-16T07:31:49.609Z,20.66
2016-12-16T07:32:15.199Z,20.65
2016-12-16T07:32:40.748Z,20.64
2016-12-16T07:33:06.373Z,20.66
2016-12-16T07:33:31.918Z,20.69
2016-12-16T07:33:57.501Z,20.68
2016-12-16T07:34:23.078Z,20.65
2016-12-16T07:34:48.730Z,20.76
2016-12-16T07:35:14.305Z,20.66
2016-12-16T07:35:39.863Z,20.66
2016-12-16T07:36:05.475Z,20.72
2016-12-16T07:36:31.160Z,20.68
2016-12-16T07:36:56.727Z,20.69
2016-12-16T07:38:06.511Z,20.62
2016-12-16T07:38:32.071Z,20.61
2016-12-16T07:38:57.634Z,20.62
2016-12-16T07:39:23.200Z,20.64
2016-12-16T07:39:48.770Z,20.61
2016-12-16T07:40:14.333Z,20.61
2016-12-16T07:40:39.926Z,20.64
2016-12-16T07:41:05.517Z,20.64
2016-12-16T07:41:31.071Z,20.64
2016-12-16T07:41:56.711Z,20.61
2016-12-16T07:42:22.290Z,20.69
2016-12-16T07:42:47.917Z,20.64
2016-12-16T07:43:13.471Z,20.69
2016-12-16T07:43:39.028Z,20.71
2016-12-16T07:44:04.596Z,20.66
2016-12-16T07:44:30.202Z,20.69
2016-12-16T07:44:55.735Z,20.69
2016-12-16T07:45:21.298Z,20.66
2016-12-16T07:45:46.868Z,20.66
2016-12-16T07:46:12.436Z,20.66
2016-12-16T07:46:38.063Z,20.69
2016-12-16T07:47:03.621Z,20.68
2016-12-16T07:47:29.194Z,20.66
2016-12-16T07:47:54.893Z,20.65
2016-12-16T07:48:20.474Z,20.69
2016-12-16T07:48:46.047Z,20.69
2016-12-16T07:49:11.698Z,20.66
2016-12-16T07:49:37.317Z,20.66
2016-12-16T07:50:02.874Z,20.65
2016-12-16T07:50:28.447Z,20.69
2016-12-16T07:50:54.001Z,20.66
2016-12-16T07:51:19.564Z,20.72
2016-12-16T07:51:45.134Z,20.65
2016-12-16T07:52:10.671Z,20.66
2016-12-16T07:52:36.247Z,20.69
2016-12-16T07:53:01.858Z,20.66
2016-12-16T07:53:27.408Z,20.66
2016-12-16T07:53:52.948Z,20.69
2016-12-16T07:54:18.635Z,20.74
2016-12-16T07:54:44.216Z,20.69
2016-12-16T07:55:09.794Z,20.71
2016-12-16T07:55:35.412Z,20.66
2016-12-16T07:56:01.018Z,20.74
2016-12-16T07:56:26.672Z,20.64
2016-12-16T07:56:52.253Z,20.68
2016-12-16T07:57:17.906Z,20.66
2016-12-16T07:57:43.477Z,20.68
2016-12-16T07:58:09.062Z,20.66
2016-12-16T07:58:34.612Z,20.71
2016-12-16T07:59:00.199Z,20.71
2016-12-16T07:59:25.767Z,20.72
2016-12-16T07:59:51.335Z,20.68
2016-12-16T08:00:16.908Z,20.66
2016-12-16T08:00:42.521Z,20.72
2016-12-16T08:01:08.086Z,20.65
2016-12-16T08:01:33.664Z,20.68
2016-12-16T08:01:59.235Z,20.62
2016-12-16T08:02:24.872Z,20.68
2016-12-16T08:02:50.431Z,20.69
2016-12-16T08:03:16.000Z,20.66
2016-12-16T08:03:41.560Z,20.65
2016-12-16T08:04:07.103Z,20.66
2016-12-16T08:04:32.690Z,20.68
2016-12-16T08:04:58.248Z,20.72
2016-12-16T08:05:23.800Z,20.69
2016-12-16T08:05:49.347Z,20.64
2016-12-16T08:06:15.003Z,20.66
2016-12-16T08:06:40.594Z,20.66
2016-12-16T08:07:06.148Z,20.68
2016-12-16T08:07:31.869Z,20.68
2016-12-16T08:07:57.443Z,20.66
2016-12-16T08:08:23.018Z,20.66
2016-12-16T08:08:48.630Z,20.68
2016-12-16T08:09:14.194Z,20.66
2016-12-16T08:09:39.770Z,20.65
2016-12-16T08:10:05.334Z,20.65
2016-12-16T08:10:30.898Z,20.66
2016-12-16T08:10:56.483Z,20.66
2016-12-16T08:11:22.038Z,20.66
2016-12-16T08:11:47.704Z,20.64
2016-12-16T08:12:13.142Z,20.68
2016-12-16T08:12:38.715Z,20.72
2016-12-16T08:13:04.384Z,20.69
2016-12-16T08:13:29.960Z,20.68
2016-12-16T08:13:55.718Z,20.68
2016-12-16T08:14:21.309Z,20.71
2016-12-16T08:14:47.088Z,20.76
2016-12-16T08:15:12.656Z,20.71
2016-12-16T08:15:38.221Z,20.72
2016-12-16T08:16:03.872Z,20.72
2016-12-16T08:16:29.482Z,20.66
2016-12-16T08:16:55.042Z,20.68
2016-12-16T08:17:20.675Z,20.66
2016-12-16T08:17:46.258Z,20.66
2016-12-16T08:18:11.814Z,20.71
2016-12-16T08:18:37.376Z,20.72
2016-12-16T08:19:02.920Z,20.65
2016-12-16T08:19:28.454Z,20.69
2016-12-16T08:19:54.056Z,20.66
2016-12-16T08:20:19.623Z,20.71
2016-12-16T08:20:45.185Z,20.72
2016-12-16T08:21:10.793Z,20.66
2016-12-16T08:21:36.387Z,20.72
2016-12-16T08:22:01.957Z,20.68
2016-12-16T08:22:27.631Z,20.71
2016-12-16T08:22:53.184Z,20.66
2016-12-16T08:23:18.768Z,20.68
2016-12-16T08:23:44.435Z,20.76
2016-12-16T08:24:10.027Z,20.66
2016-12-16T08:24:35.590Z,20.66
2016-12-16T08:25:01.157Z,20.68
2016-12-16T08:25:26.876Z,20.72
2016-12-16T08:25:52.451Z,20.76
2016-12-16T08:26:18.007Z,20.72
2016-12-16T08:26:43.568Z,20.71
2016-12-16T08:27:09.132Z,20.66
2016-12-16T08:27:34.702Z,20.65
2016-12-16T08:28:00.254Z,20.66
2016-12-16T08:28:25.824Z,20.69
2016-12-16T08:28:51.395Z,20.68
2016-12-16T08:29:17.023Z,20.64
2016-12-16T08:29:42.568Z,20.65
2016-12-16T08:30:08.153Z,20.68
2016-12-16T08:30:33.778Z,20.72
2016-12-16T08:30:59.347Z,20.64
2016-12-16T08:31:24.906Z,20.64
2016-12-16T08:31:50.614Z,20.71
2016-12-16T08:32:16.178Z,20.66
2016-12-16T08:32:41.739Z,20.71
2016-12-16T08:33:07.353Z,20.68
2016-12-16T08:33:32.901Z,20.69
2016-12-16T08:33:58.456Z,20.74
2016-12-16T08:34:24.017Z,20.66
2016-12-16T08:34:49.642Z,20.69
2016-12-16T08:35:15.248Z,20.68
2016-12-16T08:35:40.826Z,20.71
2016-12-16T08:36:06.369Z,20.66
2016-12-16T08:36:31.938Z,20.68
2016-12-16T08:36:57.489Z,20.66
2016-12-16T08:37:23.084Z,20.69
2016-12-16T08:37:48.647Z,20.72
2016-12-16T08:38:14.214Z,20.69
2016-12-16T08:38:39.783Z,20.71
2016-12-16T08:39:05.367Z,20.69
2016-12-16T08:39:31.028Z,20.72
2016-12-16T08:39:56.560Z,20.72
2016-12-16T08:40:22.115Z,20.68
2016-12-16T08:40:47.775Z,20.76
2016-12-16T08:41:13.358Z,20.68
2016-12-16T08:41:38.918Z,20.71
2016-12-16T08:42:04.472Z,20.68
2016-12-16T08:42:30.071Z,20.71
2016-12-16T08:42:55.647Z,20.66
2016-12-16T08:43:21.200Z,20.66
2016-12-16T08:43:46.755Z,20.79
2016-12-16T08:44:12.377Z,20.71
2016-12-16T08:44:38.008Z,20.71
2016-12-16T08:45:03.608Z,20.71
2016-12-16T08:45:29.181Z,20.71
2016-12-16T08:45:54.747Z,20.71
2016-12-16T08:46:20.295Z,20.66
2016-12-16T08:46:45.857Z,20.72
2016-12-16T08:47:11.471Z,20.66
2016-12-16T08:47:37.045Z,20.66
2016-12-16T08:48:02.696Z,20.65
2016-12-16T08:48:28.252Z,20.69
2016-12-16T08:48:53.931Z,20.71
2016-12-16T08:49:19.597Z,20.71
2016-12-16T08:49:45.194Z,20.69
2016-12-16T08:50:10.773Z,20.71
2016-12-16T08:50:36.347Z,20.72
2016-12-16T08:51:01.913Z,20.77
2016-12-16T08:51:27.550Z,20.71
2016-12-16T08:51:53.152Z,20.66
2016-12-16T08:52:18.746Z,20.65
2016-12-16T08:52:44.410Z,20.77
2016-12-16T08:53:10.010Z,20.76
2016-12-16T08:53:35.679Z,20.81
2016-12-16T08:54:01.378Z,20.66
2016-12-16T08:54:26.953Z,20.69
2016-12-16T08:54:52.535Z,20.71
2016-12-16T08:55:18.112Z,20.71
2016-12-16T08:55:43.688Z,20.76
2016-12-16T08:56:09.251Z,20.66
2016-12-16T08:56:34.826Z,20.69
2016-12-16T08:57:00.381Z,20.74
2016-12-16T08:57:25.978Z,20.71
2016-12-16T08:57:51.587Z,20.68
2016-12-16T08:58:17.159Z,20.66
2016-12-16T08:58:42.776Z,20.66
2016-12-16T08:59:08.397Z,20.66
2016-12-16T08:59:33.977Z,20.8
2016-12-16T08:59:59.532Z,20.66
2016-12-16T09:00:25.098Z,20.69
2016-12-16T09:00:50.666Z,20.72
2016-12-16T09:01:16.258Z,20.65
2016-12-16T09:01:41.839Z,20.68
2016-12-16T09:02:07.398Z,20.68
2016-12-16T09:02:32.970Z,20.71
2016-12-16T09:02:58.572Z,20.71
2016-12-16T09:03:24.159Z,20.69
2016-12-16T09:03:49.757Z,20.66
2016-12-16T09:04:15.312Z,20.68
2016-12-16T09:04:40.860Z,20.68
2016-12-16T09:05:06.420Z,20.76
2016-12-16T09:05:32.064Z,20.68
2016-12-16T09:05:57.626Z,20.74
2016-12-16T09:06:23.201Z,20.69
2016-12-16T09:06:48.794Z,20.69
2016-12-16T09:07:14.367Z,20.72
2016-12-16T09:07:39.967Z,20.69
2016-12-16T09:08:05.530Z,20.66
2016-12-16T09:08:31.104Z,20.69
2016-12-16T09:08:56.756Z,20.66
2016-12-16T09:09:22.324Z,20.76
2016-12-16T09:09:47.885Z,20.71
2016-12-16T09:10:13.452Z,20.71
2016-12-16T09:10:39.174Z,20.66
2016-12-16T09:11:04.944Z,20.71
2016-12-16T09:11:30.518Z,20.69
2016-12-16T09:11:56.047Z,20.68
2016-12-16T09:12:21.609Z,20.62
2016-12-16T09:12:47.161Z,20.68
2016-12-16T09:13:12.773Z,20.79
2016-12-16T09:13:38.377Z,20.69
2016-12-16T09:14:03.924Z,20.74
2016-12-16T09:14:29.491Z,20.66
2016-12-16T09:14:55.113Z,20.65
2016-12-16T09:15:20.658Z,20.66
2016-12-16T09:15:46.233Z,20.66
2016-12-16T09:16:11.807Z,20.71
2016-12-16T09:16:37.358Z,20.68
2016-12-16T09:17:02.957Z,20.65
2016-12-16T09:17:28.506Z,20.72
2016-12-16T09:17:54.074Z,20.71
2016-12-16T09:18:19.724Z,20.74
2016-12-16T09:18:45.290Z,20.65
2016-12-16T09:19:10.847Z,20.65
2016-12-16T09:19:36.452Z,20.66
2016-12-16T09:20:02.011Z,20.66
2016-12-16T09:20:27.567Z,20.66
2016-12-16T09:20:53.136Z,20.74
2016-12-16T09:21:18.707Z,20.76
2016-12-16T09:21:44.279Z,20.72
2016-12-16T09:22:10.733Z,20.79
2016-12-16T09:22:36.288Z,20.72
2016-12-16T09:23:01.926Z,20.77
2016-12-16T09:23:27.492Z,20.76
2016-12-16T09:23:53.083Z,20.72
2016-12-16T09:24:18.676Z,20.76
2016-12-16T09:24:44.263Z,20.76
2016-12-16T09:25:09.835Z,20.69
2016-12-16T09:25:35.387Z,20.65
2016-12-16T09:26:00.942Z,20.64
2016-12-16T09:26:26.633Z,20.74
2016-12-16T09:26:52.199Z,20.66
2016-12-16T09:27:17.769Z,20.77
2016-12-16T09:27:43.324Z,20.66
2016-12-16T09:28:08.890Z,20.71
2016-12-16T09:28:34.718Z,20.65
2016-12-16T09:29:00.047Z,20.69
2016-12-16T09:29:25.594Z,20.72
2016-12-16T09:29:51.172Z,20.66
2016-12-16T09:30:16.828Z,20.77
2016-12-16T09:30:42.404Z,20.68
2016-12-16T09:31:07.984Z,20.66
2016-12-16T09:31:33.575Z,20.65
2016-12-16T09:31:59.248Z,20.71
2016-12-16T09:32:24.820Z,20.77
2016-12-16T09:32:50.459Z,20.71
2016-12-16T09:33:16.066Z,20.68
2016-12-16T09:33:41.646Z,20.79
2016-12-16T09:34:07.206Z,20.65
2016-12-16T09:34:32.778Z,20.68
2016-12-16T09:34:58.348Z,20.76
2016-12-16T09:35:23.892Z,20.72
2016-12-16T09:35:49.461Z,20.79
2016-12-16T09:36:15.030Z,20.71
2016-12-16T09:36:40.650Z,20.72
2016-12-16T09:37:06.245Z,20.69
2016-12-16T09:37:31.809Z,20.72
2016-12-16T09:37:57.388Z,20.79
2016-12-16T09:38:23.036Z,20.79